createdAt,value
2022-12-20T00:00:51.372Z,41.17
2022-12-20T00:01:51.449Z,41.48
2022-12-20T00:02:51.359Z,41.38
2022-12-20T00:03:51.325Z,41.48
2022-12-20T00:04:51.300Z,41.58
2022-12-20T00:05:51.328Z,42.10
2022-12-20T00:06:51.271Z,41.79
2022-12-20T00:07:51.254Z,41.79
2022-12-20T00:08:54.284Z,41.99
2022-12-20T00:09:54.248Z,41.99
2022-12-20T00:10:51.217Z,42.51
2022-12-20T00:11:51.234Z,42.51
2022-12-20T00:12:51.195Z,42.30
2022-12-20T00:13:51.216Z,42.51
2022-12-20T00:14:51.156Z,42.41
2022-12-20T00:15:51.147Z,42.39
2022-12-20T00:16:51.177Z,42.72
2022-12-20T00:17:51.157Z,42.80
2022-12-20T00:18:51.117Z,42.80
2022-12-20T00:19:51.097Z,42.90
2022-12-20T00:20:51.080Z,42.80
2022-12-20T00:21:51.125Z,42.69
2022-12-20T00:22:51.049Z,42.80
2022-12-20T00:23:51.057Z,42.69
2022-12-20T00:24:51.048Z,42.80
2022-12-20T00:25:51.030Z,43.21
2022-12-20T00:26:51.008Z,42.80
2022-12-20T00:27:51.017Z,43.21
2022-12-20T00:28:54.007Z,43.11
2022-12-20T00:29:53.981Z,43.01
2022-12-20T00:30:50.952Z,43.21
2022-12-20T00:31:50.991Z,42.90
2022-12-20T00:32:50.926Z,42.80
2022-12-20T00:33:50.938Z,42.90
2022-12-20T00:34:50.920Z,43.11
2022-12-20T00:35:50.881Z,43.01
2022-12-20T00:36:50.874Z,43.11
2022-12-20T00:37:50.855Z,43.21
2022-12-20T00:38:50.842Z,43.32
2022-12-20T00:39:50.896Z,43.32
2022-12-20T00:40:50.812Z,43.42
2022-12-20T00:41:50.806Z,43.32
2022-12-20T00:42:50.781Z,43.52
2022-12-20T00:43:50.779Z,43.32
2022-12-20T00:44:50.752Z,43.52
2022-12-20T00:45:50.772Z,43.32
2022-12-20T00:46:50.820Z,43.63
2022-12-20T00:47:50.721Z,43.83
2022-12-20T00:48:53.709Z,43.42
2022-12-20T00:49:53.753Z,43.63
2022-12-20T00:50:50.700Z,43.52
2022-12-20T00:51:50.684Z,43.73
2022-12-20T00:52:50.658Z,43.83
2022-12-20T00:53:50.642Z,100.00
2022-12-20T00:54:50.634Z,43.60
2022-12-20T00:55:50.665Z,100.00
2022-12-20T00:56:50.605Z,44.04
2022-12-20T00:57:50.592Z,43.93
2022-12-20T00:58:50.575Z,44.12
2022-12-20T00:59:50.561Z,43.91
2022-12-20T01:00:55.713Z,44.12
2022-12-20T01:01:51.743Z,44.12
2022-12-20T01:02:50.699Z,44.12
2022-12-20T01:03:50.550Z,44.02
2022-12-20T01:04:50.499Z,44.23
2022-12-20T01:05:50.480Z,44.43
2022-12-20T01:06:50.487Z,44.53
2022-12-20T01:07:50.457Z,44.64
2022-12-20T01:08:53.436Z,44.32
2022-12-20T01:09:53.436Z,44.64
2022-12-20T01:10:50.408Z,44.53
2022-12-20T01:11:50.461Z,44.84
2022-12-20T01:12:50.381Z,44.43
2022-12-20T01:13:50.410Z,44.53
2022-12-20T01:14:50.367Z,44.43
2022-12-20T01:15:50.349Z,44.32
2022-12-20T01:16:50.431Z,44.12
2022-12-20T01:17:50.340Z,44.12
2022-12-20T01:18:50.313Z,44.12
2022-12-20T01:19:50.299Z,44.12
2022-12-20T01:20:50.321Z,44.23
2022-12-20T01:21:50.260Z,44.32
2022-12-20T01:22:50.292Z,44.23
2022-12-20T01:23:50.251Z,44.23
2022-12-20T01:24:50.252Z,44.53
2022-12-20T01:25:50.214Z,44.64
2022-12-20T01:26:50.189Z,44.64
2022-12-20T01:27:50.180Z,44.53
2022-12-20T01:28:53.174Z,44.32
2022-12-20T01:29:53.201Z,44.23
2022-12-20T01:30:50.147Z,44.32
2022-12-20T01:31:50.172Z,44.23
2022-12-20T01:32:50.119Z,44.20
2022-12-20T01:33:50.103Z,44.20
2022-12-20T01:34:50.090Z,44.10
2022-12-20T01:35:50.109Z,44.20
2022-12-20T01:36:50.059Z,44.10
2022-12-20T01:37:50.050Z,44.10
2022-12-20T01:38:50.088Z,43.99
2022-12-20T01:39:50.056Z,43.99
2022-12-20T01:40:50.011Z,44.10
2022-12-20T01:41:50.027Z,43.79
2022-12-20T01:42:49.974Z,43.90
2022-12-20T01:43:49.987Z,43.79
2022-12-20T01:44:49.957Z,43.99
2022-12-20T01:45:50.004Z,43.99
2022-12-20T01:46:49.965Z,43.99
2022-12-20T01:47:49.914Z,44.10
2022-12-20T01:48:52.949Z,44.41
2022-12-20T01:49:52.907Z,43.99
2022-12-20T01:50:49.906Z,43.90
2022-12-20T01:51:49.867Z,44.10
2022-12-20T01:52:49.877Z,43.69
2022-12-20T01:53:49.867Z,43.79
2022-12-20T01:54:49.847Z,43.99
2022-12-20T01:55:49.815Z,43.69
2022-12-20T01:56:49.840Z,43.99
2022-12-20T01:57:49.790Z,43.90
2022-12-20T01:58:49.799Z,43.79
2022-12-20T01:59:49.760Z,43.90
2022-12-20T02:00:49.846Z,43.90
2022-12-20T02:01:49.846Z,43.79
2022-12-20T02:02:49.883Z,43.71
2022-12-20T02:03:49.749Z,43.69
2022-12-20T02:04:49.727Z,43.79
2022-12-20T02:05:49.705Z,43.69
2022-12-20T02:06:49.686Z,43.99
2022-12-20T02:07:49.652Z,43.48
2022-12-20T02:08:52.683Z,43.59
2022-12-20T02:09:52.632Z,43.69
2022-12-20T02:10:49.621Z,43.59
2022-12-20T02:11:49.603Z,43.90
2022-12-20T02:12:49.588Z,43.38
2022-12-20T02:13:49.618Z,43.38
2022-12-20T02:14:49.569Z,43.59
2022-12-20T02:15:49.583Z,43.90
2022-12-20T02:16:49.610Z,43.27
2022-12-20T02:17:49.512Z,43.27
2022-12-20T02:18:49.535Z,43.59
2022-12-20T02:19:49.502Z,43.38
2022-12-20T02:20:49.496Z,43.07
2022-12-20T02:21:49.509Z,42.97
2022-12-20T02:22:49.445Z,43.17
2022-12-20T02:23:49.432Z,42.86
2022-12-20T02:24:49.425Z,43.07
2022-12-20T02:25:49.412Z,42.76
2022-12-20T02:26:49.391Z,42.97
2022-12-20T02:27:49.415Z,42.76
2022-12-20T02:28:52.365Z,42.97
2022-12-20T02:29:52.375Z,42.86
2022-12-20T02:30:49.345Z,42.66
2022-12-20T02:31:49.405Z,42.66
2022-12-20T02:32:49.381Z,42.76
2022-12-20T02:33:49.315Z,42.55
2022-12-20T02:34:49.296Z,42.45
2022-12-20T02:35:49.278Z,42.45
2022-12-20T02:36:49.259Z,42.45
2022-12-20T02:37:49.245Z,42.35
2022-12-20T02:38:49.265Z,42.24
2022-12-20T02:39:49.240Z,42.24
2022-12-20T02:40:49.222Z,42.43
2022-12-20T02:41:49.198Z,42.22
2022-12-20T02:42:49.179Z,42.22
2022-12-20T02:43:49.187Z,42.12
2022-12-20T02:44:49.174Z,42.43
2022-12-20T02:45:49.207Z,42.22
2022-12-20T02:46:49.132Z,42.12
2022-12-20T02:47:49.113Z,42.12
2022-12-20T02:48:52.131Z,42.12
2022-12-20T02:49:52.127Z,42.02
2022-12-20T02:50:49.069Z,42.02
2022-12-20T02:51:49.049Z,42.02
2022-12-20T02:52:49.054Z,41.89
2022-12-20T02:53:49.030Z,42.00
2022-12-20T02:54:49.019Z,42.02
2022-12-20T02:55:49.027Z,41.89
2022-12-20T02:56:48.995Z,42.00
2022-12-20T02:57:52.140Z,42.21
2022-12-20T02:58:49.988Z,42.00
2022-12-20T02:59:49.045Z,42.10
2022-12-20T03:00:48.935Z,42.10
2022-12-20T03:01:48.979Z,42.00
2022-12-20T03:02:49.016Z,42.00
2022-12-20T03:03:48.923Z,41.89
2022-12-20T03:04:48.882Z,41.89
2022-12-20T03:05:48.890Z,41.89
2022-12-20T03:06:48.882Z,42.21
2022-12-20T03:07:48.833Z,42.31
2022-12-20T03:08:51.822Z,42.10
2022-12-20T03:09:51.823Z,42.10
2022-12-20T03:10:48.817Z,42.10
2022-12-20T03:11:48.830Z,42.40
2022-12-20T03:12:48.786Z,42.19
2022-12-20T03:13:48.764Z,42.29
2022-12-20T03:14:48.751Z,42.19
2022-12-20T03:15:48.745Z,42.52
2022-12-20T03:16:48.783Z,42.08
2022-12-20T03:17:48.734Z,42.40
2022-12-20T03:18:48.700Z,42.49
2022-12-20T03:19:48.678Z,42.19
2022-12-20T03:20:48.673Z,42.40
2022-12-20T03:21:48.675Z,42.29
2022-12-20T03:22:48.671Z,42.08
2022-12-20T03:23:48.635Z,42.19
2022-12-20T03:24:48.626Z,42.19
2022-12-20T03:25:48.604Z,42.08
2022-12-20T03:26:48.615Z,42.40
2022-12-20T03:27:48.576Z,42.49
2022-12-20T03:28:51.556Z,42.60
2022-12-20T03:29:51.559Z,42.52
2022-12-20T03:30:48.551Z,43.03
2022-12-20T03:31:57.274Z,43.13
2022-12-20T03:32:48.517Z,42.93
2022-12-20T03:33:48.502Z,43.13
2022-12-20T03:34:48.488Z,43.03
2022-12-20T03:35:48.469Z,43.13
2022-12-20T03:36:48.487Z,43.13
2022-12-20T03:37:48.476Z,43.03
2022-12-20T03:38:48.442Z,43.13
2022-12-20T03:39:48.428Z,42.82
2022-12-20T03:40:48.418Z,42.93
2022-12-20T03:41:48.400Z,42.82
2022-12-20T03:42:48.402Z,42.82
2022-12-20T03:43:48.375Z,42.41
2022-12-20T03:44:48.402Z,42.72
2022-12-20T03:45:48.368Z,42.52
2022-12-20T03:46:48.399Z,42.52
2022-12-20T03:47:48.331Z,42.21
2022-12-20T03:48:51.298Z,42.41
2022-12-20T03:49:51.323Z,42.21
2022-12-20T03:50:48.275Z,42.21
2022-12-20T03:51:48.255Z,42.22
2022-12-20T03:52:48.289Z,42.21
2022-12-20T03:53:48.255Z,42.00
2022-12-20T03:54:48.230Z,42.22
2022-12-20T03:55:48.238Z,42.12
2022-12-20T03:56:48.205Z,42.02
2022-12-20T03:57:48.175Z,41.92
2022-12-20T03:58:48.174Z,41.82
2022-12-20T03:59:48.170Z,42.02
2022-12-20T04:00:48.168Z,41.71
2022-12-20T04:01:48.265Z,41.71
2022-12-20T04:02:48.378Z,41.40
2022-12-20T04:03:48.133Z,41.49
2022-12-20T04:04:48.088Z,41.49
2022-12-20T04:05:48.108Z,41.20
2022-12-20T04:06:48.089Z,41.08
2022-12-20T04:07:48.083Z,40.77
2022-12-20T04:08:51.039Z,40.77
2022-12-20T04:09:51.031Z,40.97
2022-12-20T04:10:48.001Z,40.66
2022-12-20T04:11:48.021Z,40.78
2022-12-20T04:12:47.984Z,40.66
2022-12-20T04:13:47.961Z,40.45
2022-12-20T04:14:47.965Z,40.27
2022-12-20T04:15:47.992Z,39.86
2022-12-20T04:16:47.958Z,39.86
2022-12-20T04:17:47.972Z,39.45
2022-12-20T04:18:47.898Z,39.24
2022-12-20T04:19:47.891Z,39.32
2022-12-20T04:20:47.879Z,39.45
2022-12-20T04:21:47.864Z,39.34
2022-12-20T04:22:47.833Z,39.03
2022-12-20T04:23:47.844Z,38.93
2022-12-20T04:24:47.815Z,39.24
2022-12-20T04:25:47.808Z,38.82
2022-12-20T04:26:47.786Z,38.73
2022-12-20T04:27:47.824Z,38.73
2022-12-20T04:28:50.756Z,38.82
2022-12-20T04:29:50.757Z,38.62
2022-12-20T04:30:47.768Z,38.42
2022-12-20T04:31:47.753Z,38.52
2022-12-20T04:32:47.763Z,38.52
2022-12-20T04:33:47.694Z,38.42
2022-12-20T04:34:47.685Z,38.73
2022-12-20T04:35:47.669Z,38.21
2022-12-20T04:36:47.679Z,38.52
2022-12-20T04:37:47.640Z,38.42
2022-12-20T04:38:47.652Z,38.00
2022-12-20T04:39:47.608Z,37.80
2022-12-20T04:40:47.590Z,37.59
2022-12-20T04:41:47.593Z,37.59
2022-12-20T04:42:47.598Z,37.59
2022-12-20T04:43:47.548Z,37.49
2022-12-20T04:44:47.554Z,37.38
2022-12-20T04:45:47.531Z,37.18
2022-12-20T04:46:47.611Z,37.18
2022-12-20T04:47:47.539Z,37.28
2022-12-20T04:48:59.315Z,36.87
2022-12-20T04:49:51.489Z,36.98
2022-12-20T04:50:47.470Z,37.28
2022-12-20T04:51:47.447Z,36.98
2022-12-20T04:52:48.348Z,36.98
2022-12-20T04:53:47.453Z,36.56
2022-12-20T04:54:47.430Z,36.56
2022-12-20T04:55:47.391Z,36.56
2022-12-20T04:56:47.388Z,36.46
2022-12-20T04:57:47.369Z,36.25
2022-12-20T04:58:47.389Z,36.25
2022-12-20T04:59:47.357Z,36.15
2022-12-20T05:00:47.354Z,36.15
2022-12-20T05:01:47.452Z,36.15
2022-12-20T05:02:47.465Z,36.46
2022-12-20T05:03:47.391Z,36.05
2022-12-20T05:04:47.274Z,35.94
2022-12-20T05:05:47.265Z,36.15
2022-12-20T05:06:47.254Z,35.74
2022-12-20T05:07:47.244Z,35.84
2022-12-20T05:08:50.262Z,35.53
2022-12-20T05:09:50.226Z,35.53
2022-12-20T05:10:47.225Z,35.33
2022-12-20T05:11:47.192Z,35.33
2022-12-20T05:12:47.172Z,35.63
2022-12-20T05:13:47.155Z,35.43
2022-12-20T05:14:47.167Z,35.22
2022-12-20T05:15:47.187Z,35.12
2022-12-20T05:16:47.109Z,35.33
2022-12-20T05:17:47.132Z,35.33
2022-12-20T05:18:49.515Z,34.91
2022-12-20T05:19:47.088Z,35.02
2022-12-20T05:20:47.063Z,34.81
2022-12-20T05:21:47.073Z,34.70
2022-12-20T05:22:47.036Z,34.91
2022-12-20T05:23:47.017Z,34.70
2022-12-20T05:24:47.021Z,34.81
2022-12-20T05:25:47.065Z,34.81
2022-12-20T05:26:46.981Z,34.81
2022-12-20T05:27:46.989Z,34.40
2022-12-20T05:28:49.957Z,34.50
2022-12-20T05:29:49.956Z,34.61
2022-12-20T05:30:46.948Z,34.50
2022-12-20T05:31:46.943Z,34.40
2022-12-20T05:32:46.908Z,34.19
2022-12-20T05:33:46.882Z,34.09
2022-12-20T05:34:46.878Z,34.19
2022-12-20T05:35:46.907Z,34.40
2022-12-20T05:36:46.944Z,33.98
2022-12-20T05:37:46.832Z,33.88
2022-12-20T05:38:46.848Z,33.98
2022-12-20T05:39:46.815Z,33.68
2022-12-20T05:40:46.799Z,33.58
2022-12-20T05:41:46.837Z,33.35
2022-12-20T05:42:46.774Z,33.47
2022-12-20T05:43:46.756Z,33.47
2022-12-20T05:44:46.743Z,33.35
2022-12-20T05:45:46.731Z,33.26
2022-12-20T05:46:46.883Z,33.25
2022-12-20T05:47:46.720Z,33.25
2022-12-20T05:48:49.691Z,33.15
2022-12-20T05:49:49.697Z,33.15
2022-12-20T05:50:46.665Z,33.35
2022-12-20T05:51:46.694Z,33.25
2022-12-20T05:52:46.633Z,33.35
2022-12-20T05:53:46.624Z,33.15
2022-12-20T05:54:46.617Z,33.15
2022-12-20T05:55:46.608Z,33.15
2022-12-20T05:56:46.623Z,33.25
2022-12-20T05:57:46.592Z,33.06
2022-12-20T05:58:46.558Z,33.25
2022-12-20T05:59:46.590Z,32.96
2022-12-20T06:00:46.527Z,33.15
2022-12-20T06:01:46.657Z,33.26
2022-12-20T06:02:46.766Z,33.16
2022-12-20T06:03:46.664Z,33.06
2022-12-20T06:04:46.516Z,33.04
2022-12-20T06:05:46.460Z,32.94
2022-12-20T06:06:46.453Z,33.16
2022-12-20T06:07:46.470Z,33.15
2022-12-20T06:08:49.422Z,33.04
2022-12-20T06:09:49.426Z,32.73
2022-12-20T06:10:46.394Z,32.73
2022-12-20T06:11:46.383Z,32.63
2022-12-20T06:12:46.418Z,32.73
2022-12-20T06:13:46.353Z,32.63
2022-12-20T06:14:46.344Z,32.43
2022-12-20T06:15:46.337Z,32.53
2022-12-20T06:16:46.385Z,32.32
2022-12-20T06:17:46.304Z,32.43
2022-12-20T06:18:46.302Z,32.32
2022-12-20T06:19:46.304Z,32.32
2022-12-20T06:20:46.268Z,32.12
2022-12-20T06:21:46.252Z,32.01
2022-12-20T06:22:46.240Z,31.90
2022-12-20T06:23:46.249Z,31.90
2022-12-20T06:24:48.833Z,31.69
2022-12-20T06:25:46.225Z,31.69
2022-12-20T06:26:46.172Z,31.28
2022-12-20T06:27:46.155Z,31.28
2022-12-20T06:28:49.145Z,31.07
2022-12-20T06:29:49.164Z,31.07
2022-12-20T06:30:46.151Z,30.85
2022-12-20T06:31:46.128Z,30.75
2022-12-20T06:32:46.095Z,30.65
2022-12-20T06:33:46.087Z,30.65
2022-12-20T06:34:46.077Z,30.65
2022-12-20T06:35:46.093Z,30.54
2022-12-20T06:36:46.048Z,30.34
2022-12-20T06:37:46.030Z,30.24
2022-12-20T06:38:46.020Z,30.24
2022-12-20T06:39:46.004Z,30.24
2022-12-20T06:40:46.025Z,30.13
2022-12-20T06:41:46.000Z,30.13
2022-12-20T06:42:45.977Z,30.12
2022-12-20T06:43:45.949Z,29.91
2022-12-20T06:44:45.950Z,29.81
2022-12-20T06:45:46.004Z,30.02
2022-12-20T06:46:45.921Z,29.91
2022-12-20T06:47:45.886Z,30.02
2022-12-20T06:48:48.869Z,29.91
2022-12-20T06:49:48.884Z,29.81
2022-12-20T06:50:50.664Z,29.81
2022-12-20T06:51:46.863Z,29.71
2022-12-20T06:52:45.847Z,29.61
2022-12-20T06:53:45.812Z,29.50
2022-12-20T06:54:45.817Z,29.40
2022-12-20T06:55:45.783Z,29.40
2022-12-20T06:56:45.833Z,29.30
2022-12-20T06:57:45.754Z,29.40
2022-12-20T06:58:45.753Z,29.50
2022-12-20T06:59:45.730Z,29.50
2022-12-20T07:00:45.772Z,29.50
2022-12-20T07:01:45.889Z,29.40
2022-12-20T07:02:45.862Z,29.40
2022-12-20T07:03:45.750Z,29.50
2022-12-20T07:04:45.665Z,29.50
2022-12-20T07:05:45.648Z,29.30
2022-12-20T07:06:45.641Z,29.30
2022-12-20T07:07:45.763Z,29.28
2022-12-20T07:08:48.628Z,29.30
2022-12-20T07:09:48.631Z,29.50
2022-12-20T07:10:45.579Z,29.39
2022-12-20T07:11:45.627Z,29.49
2022-12-20T07:12:48.129Z,29.28
2022-12-20T07:13:45.545Z,29.18
2022-12-20T07:14:45.535Z,29.39
2022-12-20T07:15:45.510Z,29.39
2022-12-20T07:16:45.544Z,29.61
2022-12-20T07:17:45.517Z,29.28
2022-12-20T07:18:45.472Z,29.28
2022-12-20T07:19:50.529Z,29.39
2022-12-20T07:20:46.439Z,29.28
2022-12-20T07:21:45.444Z,29.39
2022-12-20T07:22:45.446Z,29.28
2022-12-20T07:23:45.431Z,29.18
2022-12-20T07:24:45.411Z,29.28
2022-12-20T07:25:45.446Z,29.18
2022-12-20T07:26:45.356Z,29.39
2022-12-20T07:27:45.353Z,29.30
2022-12-20T07:28:48.335Z,29.28
2022-12-20T07:29:48.333Z,29.39
2022-12-20T07:30:45.314Z,29.50
2022-12-20T07:31:45.358Z,29.39
2022-12-20T07:32:45.291Z,29.39
2022-12-20T07:33:45.275Z,29.39
2022-12-20T07:34:45.268Z,29.28
2022-12-20T07:35:49.422Z,29.28
2022-12-20T07:36:46.225Z,29.39
2022-12-20T07:37:45.228Z,29.39
2022-12-20T07:38:45.201Z,29.39
2022-12-20T07:39:45.255Z,29.69
2022-12-20T07:40:45.189Z,29.49
2022-12-20T07:41:45.158Z,29.39
2022-12-20T07:42:48.798Z,29.28
2022-12-20T07:43:45.130Z,29.39
2022-12-20T07:44:45.113Z,29.49
2022-12-20T07:45:45.252Z,29.49
2022-12-20T07:46:45.161Z,29.59
2022-12-20T07:47:45.090Z,29.80
2022-12-20T07:48:48.061Z,29.59
2022-12-20T07:49:48.080Z,29.59
2022-12-20T07:50:45.073Z,29.80
2022-12-20T07:51:45.043Z,29.80
2022-12-20T07:52:45.000Z,30.00
2022-12-20T07:53:45.004Z,29.69
2022-12-20T07:54:45.010Z,29.69
2022-12-20T07:55:44.998Z,29.59
2022-12-20T07:56:45.011Z,29.59
2022-12-20T07:57:44.946Z,29.69
2022-12-20T07:58:44.933Z,29.69
2022-12-20T07:59:44.922Z,29.90
2022-12-20T08:00:44.904Z,30.00
2022-12-20T08:01:44.986Z,29.80
2022-12-20T08:02:45.218Z,30.10
2022-12-20T08:03:44.930Z,29.90
2022-12-20T08:04:44.843Z,30.00
2022-12-20T08:05:44.874Z,30.00
2022-12-20T08:06:44.811Z,30.00
2022-12-20T08:07:44.835Z,30.00
2022-12-20T08:08:47.785Z,29.80
2022-12-20T08:09:47.789Z,29.90
2022-12-20T08:10:44.797Z,29.90
2022-12-20T08:11:44.753Z,30.10
2022-12-20T08:12:44.785Z,30.00
2022-12-20T08:13:46.809Z,30.21
2022-12-20T08:14:44.702Z,30.21
2022-12-20T08:15:44.737Z,30.41
2022-12-20T08:16:44.758Z,30.52
2022-12-20T08:17:44.662Z,30.31
2022-12-20T08:18:44.707Z,30.72
2022-12-20T08:19:44.669Z,30.41
2022-12-20T08:20:44.637Z,30.31
2022-12-20T08:21:44.616Z,30.52
2022-12-20T08:22:44.595Z,30.31
2022-12-20T08:23:44.597Z,30.41
2022-12-20T08:24:44.617Z,30.31
2022-12-20T08:25:44.564Z,30.31
2022-12-20T08:26:44.550Z,30.41
2022-12-20T08:27:44.529Z,30.31
2022-12-20T08:28:47.509Z,30.31
2022-12-20T08:29:47.548Z,30.52
2022-12-20T08:30:44.571Z,30.52
2022-12-20T08:31:49.764Z,30.21
2022-12-20T08:32:45.462Z,30.31
2022-12-20T08:33:44.479Z,30.62
2022-12-20T08:34:44.431Z,30.41
2022-12-20T08:35:44.422Z,30.72
2022-12-20T08:36:44.409Z,30.52
2022-12-20T08:37:44.408Z,30.62
2022-12-20T08:38:44.419Z,30.60
2022-12-20T08:39:44.382Z,30.81
2022-12-20T08:40:44.358Z,30.91
2022-12-20T08:41:44.336Z,30.81
2022-12-20T08:42:44.323Z,30.81
2022-12-20T08:43:44.383Z,31.02
2022-12-20T08:44:44.314Z,31.02
2022-12-20T08:45:44.323Z,31.12
2022-12-20T08:46:44.380Z,31.12
2022-12-20T08:47:44.264Z,31.22
2022-12-20T08:48:47.267Z,31.43
2022-12-20T08:49:47.980Z,31.22
2022-12-20T08:50:44.262Z,31.32
2022-12-20T08:51:44.272Z,31.53
2022-12-20T08:52:44.204Z,31.63
2022-12-20T08:53:44.203Z,31.63
2022-12-20T08:54:44.915Z,31.73
2022-12-20T08:55:44.213Z,31.63
2022-12-20T08:56:44.177Z,31.63
2022-12-20T08:57:44.127Z,32.04
2022-12-20T08:58:44.130Z,32.04
2022-12-20T08:59:44.126Z,32.04
2022-12-20T09:00:44.088Z,31.73
2022-12-20T09:01:44.250Z,31.94
2022-12-20T09:02:44.270Z,31.84
2022-12-20T09:03:44.092Z,32.04
2022-12-20T09:04:44.018Z,32.15
2022-12-20T09:05:44.039Z,32.04
2022-12-20T09:06:43.999Z,32.04
2022-12-20T09:07:43.996Z,32.04
2022-12-20T09:08:46.987Z,32.15
2022-12-20T09:09:46.984Z,32.04
2022-12-20T09:10:44.009Z,31.94
2022-12-20T09:11:43.951Z,31.94
2022-12-20T09:12:43.923Z,31.84
2022-12-20T09:13:44.694Z,32.04
2022-12-20T09:14:43.899Z,100.00
2022-12-20T09:15:43.944Z,100.00
2022-12-20T09:16:43.902Z,100.00
2022-12-20T09:17:43.857Z,100.00
2022-12-20T09:18:43.819Z,31.10
2022-12-20T09:19:43.831Z,31.00
2022-12-20T09:20:43.847Z,30.69
2022-12-20T09:21:43.822Z,30.80
2022-12-20T09:22:43.785Z,30.59
2022-12-20T09:23:43.763Z,30.38
2022-12-20T09:24:43.754Z,30.07
2022-12-20T09:25:46.508Z,29.86
2022-12-20T09:26:45.729Z,29.75
2022-12-20T09:27:43.763Z,29.75
2022-12-20T09:28:46.730Z,29.86
2022-12-20T09:29:46.710Z,29.45
2022-12-20T09:30:43.692Z,29.55
2022-12-20T09:31:43.806Z,29.55
2022-12-20T09:32:43.637Z,29.43
2022-12-20T09:33:43.628Z,29.33
2022-12-20T09:34:43.638Z,29.33
2022-12-20T09:35:43.609Z,29.13
2022-12-20T09:36:43.586Z,29.23
2022-12-20T09:37:43.601Z,29.33
2022-12-20T09:38:43.566Z,29.13
2022-12-20T09:39:43.549Z,29.23
2022-12-20T09:40:43.542Z,29.33
2022-12-20T09:41:43.518Z,29.33
2022-12-20T09:42:43.543Z,29.33
2022-12-20T09:43:43.501Z,29.33
2022-12-20T09:44:43.486Z,29.43
2022-12-20T09:45:43.458Z,29.13
2022-12-20T09:46:43.489Z,29.23
2022-12-20T09:47:43.529Z,29.22
2022-12-20T09:48:46.420Z,29.11
2022-12-20T09:49:46.430Z,29.63
2022-12-20T09:50:43.407Z,29.22
2022-12-20T09:51:43.393Z,29.41
2022-12-20T09:52:43.405Z,29.20
2022-12-20T09:53:43.360Z,29.51
2022-12-20T09:54:43.342Z,29.41
2022-12-20T09:55:43.353Z,29.41
2022-12-20T09:56:43.311Z,29.30
2022-12-20T09:57:43.300Z,29.41
2022-12-20T09:58:43.328Z,29.71
2022-12-20T09:59:49.071Z,29.63
2022-12-20T10:00:48.454Z,30.22
2022-12-20T10:01:44.303Z,29.70
2022-12-20T10:03:44.428Z,29.91
2022-12-20T10:04:43.524Z,30.00
2022-12-20T10:05:43.289Z,30.52
2022-12-20T10:06:43.212Z,30.73
2022-12-20T10:07:43.181Z,30.71
2022-12-20T10:08:46.155Z,31.53
2022-12-20T10:09:46.179Z,31.73
2022-12-20T10:10:43.148Z,31.63
2022-12-20T10:11:50.173Z,32.14
2022-12-20T10:12:44.110Z,32.45
2022-12-20T10:13:43.114Z,32.33
2022-12-20T10:14:43.117Z,32.97
2022-12-20T10:15:43.097Z,33.15
2022-12-20T10:16:43.059Z,34.07
2022-12-20T10:17:43.086Z,34.70
2022-12-20T10:18:43.037Z,35.81
2022-12-20T10:19:43.017Z,36.12
2022-12-20T10:20:43.017Z,36.02
2022-12-20T10:21:43.055Z,36.83
2022-12-20T10:22:42.977Z,37.24
2022-12-20T10:23:42.964Z,38.39
2022-12-20T10:24:42.947Z,39.39
2022-12-20T10:25:42.947Z,39.82
2022-12-20T10:26:42.974Z,40.54
2022-12-20T10:27:42.987Z,40.95
2022-12-20T10:28:50.713Z,41.77
2022-12-20T10:29:46.899Z,42.07
2022-12-20T10:30:42.893Z,43.20
2022-12-20T10:31:42.927Z,43.32
2022-12-20T10:32:42.851Z,43.71
2022-12-20T10:33:42.869Z,44.02
2022-12-20T10:34:48.379Z,44.84
2022-12-20T10:35:43.840Z,45.64
2022-12-20T10:36:42.817Z,45.64
2022-12-20T10:38:00.022Z,47.09
2022-12-20T10:38:43.812Z,47.31
2022-12-20T10:39:42.772Z,47.60
2022-12-20T10:41:43.726Z,48.60
2022-12-20T10:42:42.718Z,49.42
2022-12-20T10:43:42.723Z,50.04
2022-12-20T10:44:42.719Z,50.34
2022-12-20T10:45:42.715Z,50.45
2022-12-20T10:46:42.895Z,51.16
2022-12-20T10:47:42.635Z,51.67
2022-12-20T10:48:45.625Z,51.78
2022-12-20T10:49:45.637Z,52.08
2022-12-20T10:50:42.611Z,53.00
2022-12-20T10:51:42.616Z,53.46
2022-12-20T10:52:42.624Z,53.75
2022-12-20T10:53:42.566Z,53.64
2022-12-20T10:54:42.594Z,54.05
2022-12-20T10:55:42.619Z,54.03
2022-12-20T10:56:42.571Z,54.23
2022-12-20T10:57:42.516Z,54.64
2022-12-20T10:58:42.498Z,54.54
2022-12-20T10:59:42.517Z,54.44
2022-12-20T11:00:42.492Z,54.31
2022-12-20T11:01:42.625Z,55.23
2022-12-20T11:02:43.227Z,56.25
2022-12-20T11:03:42.580Z,56.97
2022-12-20T11:04:42.427Z,57.07
2022-12-20T11:05:42.408Z,57.58
2022-12-20T11:06:42.466Z,58.40
2022-12-20T11:07:50.371Z,58.81
2022-12-20T11:08:51.478Z,59.94
2022-12-20T11:09:46.367Z,60.75
2022-12-20T11:10:42.391Z,61.03
2022-12-20T11:11:42.383Z,60.83
2022-12-20T11:12:42.344Z,60.52
2022-12-20T11:13:42.352Z,60.83
2022-12-20T11:14:42.308Z,62.26
2022-12-20T11:15:42.365Z,62.70
2022-12-20T11:16:42.298Z,62.59
2022-12-20T11:17:42.252Z,63.00
2022-12-20T11:18:42.241Z,63.51
2022-12-20T11:19:42.252Z,63.89
2022-12-20T11:20:42.211Z,64.10
2022-12-20T11:21:42.209Z,64.51
2022-12-20T11:22:42.213Z,64.40
2022-12-20T11:23:42.165Z,65.63
2022-12-20T11:24:42.153Z,66.04
2022-12-20T11:25:42.148Z,65.63
2022-12-20T11:26:42.125Z,65.43
2022-12-20T11:27:42.147Z,65.63
2022-12-20T11:28:45.125Z,65.94
2022-12-20T11:29:45.098Z,66.14
2022-12-20T11:30:42.085Z,66.04
2022-12-20T11:31:42.092Z,64.92
2022-12-20T11:32:48.316Z,64.92
2022-12-20T11:33:43.085Z,64.33
2022-12-20T11:34:42.017Z,64.23
2022-12-20T11:35:41.996Z,64.23
2022-12-20T11:36:42.030Z,63.72
2022-12-20T11:37:42.004Z,63.21
2022-12-20T11:38:42.010Z,62.49
2022-12-20T11:39:41.990Z,61.77
2022-12-20T11:40:41.966Z,61.26
2022-12-20T11:41:41.919Z,60.47
2022-12-20T11:42:41.911Z,60.17
2022-12-20T11:44:15.220Z,59.55
2022-12-20T11:44:49.778Z,58.97
2022-12-20T11:45:42.881Z,58.04
2022-12-20T11:46:41.917Z,57.20
2022-12-20T11:47:41.841Z,56.48
2022-12-20T11:48:44.860Z,55.77
2022-12-20T11:49:44.832Z,55.05
2022-12-20T11:50:41.821Z,54.64
2022-12-20T11:51:43.293Z,53.92
2022-12-20T11:52:41.802Z,53.44
2022-12-20T11:53:41.761Z,52.72
2022-12-20T11:54:41.763Z,52.11
2022-12-20T11:55:41.743Z,51.93
2022-12-20T11:56:44.609Z,51.29
2022-12-20T11:58:08.979Z,50.67
2022-12-20T11:58:42.714Z,50.16
2022-12-20T11:59:41.684Z,49.55
2022-12-20T12:00:41.684Z,48.83
2022-12-20T12:01:41.766Z,48.73
2022-12-20T12:02:41.755Z,48.01
2022-12-20T12:03:41.673Z,47.52
2022-12-20T12:04:41.627Z,47.11
2022-12-20T12:05:41.690Z,46.62
2022-12-20T12:06:41.621Z,46.09
2022-12-20T12:07:41.608Z,45.78
2022-12-20T12:08:44.582Z,45.18
2022-12-20T12:09:44.579Z,45.06
2022-12-20T12:10:41.556Z,44.45
2022-12-20T12:12:06.750Z,44.14
2022-12-20T12:12:42.517Z,44.04
2022-12-20T12:13:41.507Z,43.63
2022-12-20T12:14:41.535Z,43.43
2022-12-20T12:15:41.491Z,43.02
2022-12-20T12:16:41.610Z,43.02
2022-12-20T12:17:41.449Z,42.30
2022-12-20T12:18:41.439Z,41.89
2022-12-20T12:19:41.436Z,41.68
2022-12-20T12:20:41.429Z,41.78
2022-12-20T12:21:41.408Z,41.27
2022-12-20T12:22:41.461Z,41.07
2022-12-20T12:23:41.389Z,40.97
2022-12-20T12:24:41.386Z,40.66
2022-12-20T12:25:41.374Z,40.25
2022-12-20T12:26:41.353Z,39.96
2022-12-20T12:27:41.344Z,39.86
2022-12-20T12:28:44.385Z,39.65
2022-12-20T12:29:44.324Z,39.74
2022-12-20T12:30:41.302Z,39.45
2022-12-20T12:31:41.320Z,39.14
2022-12-20T12:32:44.197Z,38.73
2022-12-20T12:33:41.268Z,39.14
2022-12-20T12:34:41.312Z,38.73
2022-12-20T12:35:41.250Z,38.63
2022-12-20T12:36:41.231Z,38.63
2022-12-20T12:37:41.200Z,38.01
2022-12-20T12:38:41.205Z,37.81
2022-12-20T12:39:41.165Z,37.28
2022-12-20T12:40:41.199Z,36.98
2022-12-20T12:41:41.159Z,36.87
2022-12-20T12:42:41.134Z,36.77
2022-12-20T12:43:41.117Z,36.46
2022-12-20T12:44:41.153Z,36.46
2022-12-20T12:45:41.225Z,36.17
2022-12-20T12:46:41.132Z,36.17
2022-12-20T12:47:41.057Z,36.07
2022-12-20T12:48:44.067Z,35.95
2022-12-20T12:49:44.198Z,35.54
2022-12-20T12:50:41.069Z,35.54
2022-12-20T12:51:41.044Z,35.03
2022-12-20T12:52:40.992Z,34.72
2022-12-20T12:53:41.003Z,34.82
2022-12-20T12:54:40.996Z,34.53